Time;durP1;ratioP1;P1;durP2;ratioP2;P2;SDS_P1;SDS_P2;PMS_P1;PMS_P2;Temp;Humidity;BMP_temperature;BMP_pressure;BME280_temperature;BME280_humidity;BME280_pressure;Samples;Min_cycle;Max_cycle;Signal;HPM_P1;HPM_P2
2021/04/22 00:00:16;;;;;;;1.50;0.63;;;;;;;4.03;68.27;100918.78;4991656;28;20191;-78
2021/04/22 00:02:42;;;;;;;0.93;0.93;;;;;;;4.05;68.81;100924.75;4991584;28;20173;-82
2021/04/22 00:05:22;;;;;;;5.73;1.60;;;;;;;4.06;68.22;100924.53;4991560;28;20567;-79
2021/04/22 00:07:52;;;;;;;2.00;0.70;;;;;;;4.05;68.64;100932.84;4991530;28;20526;-83
2021/04/22 00:10:22;;;;;;;6.23;1.27;;;;;;;4.06;68.97;100918.31;4991476;28;20214;-79
2021/04/22 00:12:47;;;;;;;0.50;0.50;;;;;;;4.06;68.35;100927.22;4991747;28;20181;-86
2021/04/22 00:15:18;;;;;;;1.60;0.80;;;;;;;4.07;68.27;100926.16;4991453;28;20184;-84
2021/04/22 00:17:44;;;;;;;6.37;0.77;;;;;;;4.08;67.31;100935.91;4991422;28;20185;-79
2021/04/22 00:20:12;;;;;;;5.07;0.60;;;;;;;4.09;67.95;100934.81;4991506;28;20177;-83
2021/04/22 00:22:38;;;;;;;13.70;1.17;;;;;;;4.13;68.30;100935.13;4991351;28;20177;-80
2021/04/22 00:25:04;;;;;;;10.90;0.80;;;;;;;4.15;68.88;100928.38;4991365;28;20559;-80
2021/04/22 00:27:30;;;;;;;6.47;1.33;;;;;;;4.17;68.81;100933.53;4991403;28;20308;-79
2021/04/22 00:29:55;;;;;;;2.83;1.23;;;;;;;4.18;69.00;100924.34;4989948;28;20299;-79
2021/04/22 00:32:20;;;;;;;12.07;0.70;;;;;;;4.18;68.63;100930.56;4991167;28;20189;-75
2021/04/22 00:34:46;;;;;;;1.90;1.70;;;;;;;4.20;68.45;100926.81;4991419;28;20716;-80
2021/04/22 00:37:11;;;;;;;0.67;0.67;;;;;;;4.22;67.89;100933.59;4991580;28;20648;-85
2021/04/22 00:39:37;;;;;;;4.23;1.27;;;;;;;4.24;67.77;100928.72;4990258;28;20193;-77
2021/04/22 00:42:04;;;;;;;2.23;2.03;;;;;;;4.21;67.98;100940.06;4991059;28;20563;-82
2021/04/22 00:44:30;;;;;;;1.13;1.03;;;;;;;4.18;67.21;100935.97;4991202;28;20178;-84
2021/04/22 00:46:57;;;;;;;3.00;0.83;;;;;;;4.17;67.55;100933.53;4991198;28;20740;-80
2021/04/22 00:49:23;;;;;;;1.57;1.13;;;;;;;4.12;66.77;100937.00;4991574;28;20208;-76
2021/04/22 00:51:50;;;;;;;0.83;0.83;;;;;;;4.12;67.44;100933.47;4993808;28;20260;-86
2021/04/22 00:54:15;;;;;;;7.90;2.60;;;;;;;4.12;67.46;100942.41;4992019;28;20184;-86
2021/04/22 00:56:40;;;;;;;1.53;1.00;;;;;;;4.13;67.29;100935.94;4991146;28;20177;-84
2021/04/22 00:59:06;;;;;;;3.23;2.23;;;;;;;4.15;66.95;100943.78;4993141;28;20177;-84
2021/04/22 01:01:31;;;;;;;0.80;0.80;;;;;;;4.14;66.68;100936.75;4994830;28;20174;-82
2021/04/22 01:03:56;;;;;;;0.53;0.50;;;;;;;4.14;66.87;100944.84;4994781;28;20177;-76
2021/04/22 01:06:22;;;;;;;1.87;0.80;;;;;;;4.14;66.88;100939.44;4994918;28;20173;-84
2021/04/22 01:08:47;;;;;;;0.10;0.07;;;;;;;4.15;66.79;100943.78;4994630;28;20200;-81
2021/04/22 01:11:14;;;;;;;8.60;1.50;;;;;;;4.15;66.62;100941.88;4994609;28;20232;-84
2021/04/22 01:13:39;;;;;;;1.60;0.90;;;;;;;4.15;66.48;100944.59;4994209;28;20174;-78
2021/04/22 01:16:05;;;;;;;1.30;0.90;;;;;;;4.17;67.28;100947.03;4994579;28;20272;-80
2021/04/22 01:18:30;;;;;;;6.67;1.90;;;;;;;4.17;66.84;100939.75;4994497;28;20181;-82
2021/04/22 01:20:58;;;;;;;2.80;1.13;;;;;;;4.20;67.04;100946.56;4994362;28;20199;-78
2021/04/22 01:23:23;;;;;;;2.63;1.30;;;;;;;4.23;66.37;100951.44;4994430;28;20232;-82
2021/04/22 01:25:51;;;;;;;4.03;1.30;;;;;;;4.24;66.22;100946.84;4994339;28;20177;-79
2021/04/22 01:28:18;;;;;;;1.50;0.97;;;;;;;4.28;66.29;100956.06;4994225;28;20182;-81
2021/04/22 01:30:50;;;;;;;4.50;1.53;;;;;;;4.29;66.87;100946.88;4994068;28;20247;-85
2021/04/22 01:33:17;;;;;;;0.53;0.53;;;;;;;4.31;66.40;100955.56;4994129;28;20213;-86
2021/04/22 01:35:45;;;;;;;6.43;1.17;;;;;;;4.32;66.94;100952.59;4994222;28;20626;-82
2021/04/22 01:38:12;;;;;;;1.37;0.70;;;;;;;4.32;65.67;100944.47;4994113;28;20630;-82
2021/04/22 01:40:38;;;;;;;8.00;1.57;;;;;;;4.33;65.79;100939.88;4993881;28;20193;-85
2021/04/22 01:43:04;;;;;;;5.33;1.37;;;;;;;4.34;65.40;100949.63;4992784;28;20189;-86
2021/04/22 01:45:30;;;;;;;2.03;0.73;;;;;;;4.35;65.70;100949.38;4993987;28;20177;-81
2021/04/22 01:47:56;;;;;;;0.80;0.80;;;;;;;4.37;65.74;100951.84;4994020;28;20207;-84
2021/04/22 01:50:25;;;;;;;1.40;0.70;;;;;;;4.40;65.65;100957.53;4994191;28;20204;-83
2021/04/22 01:52:51;;;;;;;7.10;3.10;;;;;;;4.43;65.89;100956.19;4993726;28;20192;-82
2021/04/22 01:55:21;;;;;;;4.27;2.10;;;;;;;4.42;65.26;100954.56;4993914;28;20265;-83
2021/04/22 01:57:47;;;;;;;0.97;0.67;;;;;;;4.40;65.05;100946.72;4994116;28;20252;-83
2021/04/22 02:00:17;;;;;;;1.77;1.20;;;;;;;4.41;64.81;100959.16;4993743;28;20587;-85
2021/04/22 02:02:42;;;;;;;12.07;1.83;;;;;;;4.43;65.12;100950.78;4993627;28;20184;-86
2021/04/22 02:05:10;;;;;;;2.57;1.50;;;;;;;4.43;64.74;100953.50;4993805;28;20176;-83
2021/04/22 02:07:36;;;;;;;0.87;0.70;;;;;;;4.45;64.67;100951.34;4993388;28;20549;-83
2021/04/22 02:10:05;;;;;;;8.40;0.67;;;;;;;4.45;65.20;100951.34;4992436;28;20299;-86
2021/04/22 02:12:30;;;;;;;17.90;1.20;;;;;;;4.44;65.06;100952.41;4993512;28;20693;-85
2021/04/22 02:14:55;;;;;;;1.07;0.43;;;;;;;4.45;65.38;100952.16;4992391;28;20196;-83
2021/04/22 02:17:21;;;;;;;5.27;1.53;;;;;;;4.43;65.38;100956.19;4993448;28;20216;-80
2021/04/22 02:19:46;;;;;;;0.27;0.23;;;;;;;4.40;65.55;100956.72;4993228;28;20648;-83
2021/04/22 02:22:12;;;;;;;2.67;2.47;;;;;;;4.39;65.24;100955.91;4993317;28;20252;-81
2021/04/22 02:24:37;;;;;;;0.70;0.57;;;;;;;4.42;64.77;100966.22;4993345;28;20188;-80
2021/04/22 02:27:03;;;;;;;1.10;0.33;;;;;;;4.44;65.42;100957.84;4993275;28;20260;-81
2021/04/22 02:29:28;;;;;;;4.83;0.40;;;;;;;4.45;65.45;100964.88;4993108;28;20208;-83
2021/04/22 02:31:53;;;;;;;4.57;0.70;;;;;;;4.43;65.49;100972.44;4993274;28;20220;-83
2021/04/22 02:34:19;;;;;;;1.77;0.87;;;;;;;4.44;65.87;100955.13;4992885;28;20204;-81
2021/04/22 02:36:44;;;;;;;0.50;0.50;;;;;;;4.45;65.88;100964.88;4993039;28;20292;-81
2021/04/22 02:39:09;;;;;;;0.50;0.50;;;;;;;4.42;65.39;100959.97;4993163;28;20181;-82
2021/04/22 02:41:35;;;;;;;4.60;0.70;;;;;;;4.43;66.13;100972.44;4992820;28;20267;-84
2021/04/22 02:44:00;;;;;;;2.03;0.73;;;;;;;4.40;66.85;100970.25;4992943;28;20178;-84
2021/04/22 02:46:26;;;;;;;0.30;0.30;;;;;;;4.39;66.60;100974.84;4992921;28;20178;-83
2021/04/22 02:48:51;;;;;;;1.27;0.53;;;;;;;4.37;67.12;100968.06;4992598;28;20181;-78
2021/04/22 02:51:16;;;;;;;1.37;1.27;;;;;;;4.35;66.78;100962.09;4992877;28;20201;-84
2021/04/22 02:53:42;;;;;;;1.97;1.77;;;;;;;4.32;67.11;100963.41;4992745;28;20181;-84
2021/04/22 02:56:07;;;;;;;0.50;0.50;;;;;;;4.34;67.03;100965.84;4992733;28;20212;-83
2021/04/22 02:58:33;;;;;;;2.97;0.80;;;;;;;4.33;67.00;100956.09;4992631;28;20268;-82
2021/04/22 03:00:58;;;;;;;1.07;0.73;;;;;;;4.36;67.24;100963.72;4992696;28;20185;-82
2021/04/22 03:03:24;;;;;;;1.30;0.50;;;;;;;4.36;67.59;100971.84;4992406;28;20515;-81
2021/04/22 03:05:50;;;;;;;0.23;0.20;;;;;;;4.37;67.37;100973.47;4992553;28;20254;-86
2021/04/22 03:08:16;;;;;;;2.20;2.03;;;;;;;4.38;67.35;100964.28;4992541;28;20260;-80
2021/04/22 03:10:43;;;;;;;1.40;1.27;;;;;;;4.36;67.52;100967.25;4992295;28;20601;-82
2021/04/22 03:13:08;;;;;;;4.60;1.33;;;;;;;4.34;67.25;100963.16;4992369;28;20173;-85
2021/04/22 03:15:35;;;;;;;0.47;0.47;;;;;;;4.36;67.94;100967.25;4992125;28;20177;-85
2021/04/22 03:18:01;;;;;;;13.57;0.53;;;;;;;4.33;68.05;100967.75;4992268;28;20173;-84
2021/04/22 03:20:26;;;;;;;0.00;0.00;;;;;;;4.32;68.14;100960.69;4992134;28;20173;-85
2021/04/22 03:22:52;;;;;;;1.17;1.13;;;;;;;4.29;68.98;100972.03;4991835;28;20180;-80
2021/04/22 03:25:22;;;;;;;0.27;0.27;;;;;;;4.31;69.01;100974.47;4992201;28;20173;-82
2021/04/22 03:27:48;;;;;;;0.10;0.10;;;;;;;4.31;69.46;100979.91;4992176;28;20185;-83
2021/04/22 03:30:16;;;;;;;4.80;0.80;;;;;;;4.29;69.32;100982.03;4991909;28;20680;-84
2021/04/22 03:32:43;;;;;;;0.37;0.20;;;;;;;4.29;69.05;100982.03;4992023;28;20708;-76
2021/04/22 03:35:09;;;;;;;0.57;0.57;;;;;;;4.32;69.24;100981.53;5007178;28;20197;-81
2021/04/22 03:37:35;;;;;;;0.87;0.77;;;;;;;4.33;69.43;100975.84;4992017;28;20243;-79
2021/04/22 03:40:01;;;;;;;1.20;0.13;;;;;;;4.33;69.42;100975.03;4991759;28;20177;-81
2021/04/22 03:42:27;;;;;;;0.40;0.40;;;;;;;4.33;68.20;100970.44;4990503;28;20191;-77
2021/04/22 03:44:52;;;;;;;4.43;1.30;;;;;;;4.36;68.27;100971.84;4991872;28;20258;-84
2021/04/22 03:47:17;;;;;;;0.30;0.30;;;;;;;4.36;67.52;100971.84;4991869;28;20264;-85
2021/04/22 03:49:43;;;;;;;4.70;0.73;;;;;;;4.38;67.76;100975.91;5006837;28;20209;-80
2021/04/22 03:52:09;;;;;;;1.33;0.57;;;;;;;4.38;67.00;100973.22;4991785;28;20181;-85
2021/04/22 03:54:35;;;;;;;0.63;0.30;;;;;;;4.39;67.52;100972.13;4991750;28;20227;-83
2021/04/22 03:57:02;;;;;;;0.40;0.30;;;;;;;4.39;66.55;100979.44;4991639;28;20180;-84
2021/04/22 03:59:27;;;;;;;4.70;1.03;;;;;;;4.38;66.42;100969.69;4991556;28;20230;-80
2021/04/22 04:01:53;;;;;;;0.77;0.10;;;;;;;4.38;66.86;100980.50;4991586;28;20559;-82
2021/04/22 04:04:19;;;;;;;2.10;1.33;;;;;;;4.37;66.67;100977.00;4991548;28;20601;-83
2021/04/22 04:06:44;;;;;;;1.63;1.03;;;;;;;4.38;66.65;100978.63;4991613;28;20189;-81
2021/04/22 04:09:09;;;;;;;3.57;1.17;;;;;;;4.40;66.67;100983.78;4991414;28;20708;-81
2021/04/22 04:11:35;;;;;;;1.10;0.67;;;;;;;4.40;67.22;100986.47;5006569;28;20629;-78
2021/04/22 04:14:00;;;;;;;0.83;0.77;;;;;;;4.40;66.62;100983.78;4991128;28;20272;-81
2021/04/22 04:16:25;;;;;;;3.63;0.67;;;;;;;4.40;66.12;100989.19;4991578;28;20645;-85
2021/04/22 04:18:51;;;;;;;1.17;0.93;;;;;;;4.41;65.80;100986.22;4991490;28;20228;-80
2021/04/22 04:21:17;;;;;;;11.50;2.03;;;;;;;4.40;66.41;100971.06;4991464;28;20177;-80
2021/04/22 04:23:42;;;;;;;0.40;0.40;;;;;;;4.40;65.96;100981.88;4991396;28;20180;-81
2021/04/22 04:26:08;;;;;;;0.20;0.20;;;;;;;4.41;66.58;100980.00;4991430;28;20180;-79
2021/04/22 04:28:33;;;;;;;0.80;0.57;;;;;;;4.41;66.46;100983.50;4991492;28;20177;-83
2021/04/22 04:30:58;;;;;;;1.40;0.83;;;;;;;4.41;66.52;100983.50;4991249;28;20239;-78
2021/04/22 04:33:24;;;;;;;8.83;1.20;;;;;;;4.43;66.53;100980.56;4992221;28;20662;-84
2021/04/22 04:35:49;;;;;;;0.30;0.13;;;;;;;4.45;66.31;100978.41;4995444;28;20177;-83
2021/04/22 04:38:15;;;;;;;0.40;0.40;;;;;;;4.42;66.18;100978.91;4995462;28;20263;-84
2021/04/22 04:40:40;;;;;;;2.27;0.93;;;;;;;4.42;66.13;100995.16;4995015;28;20283;-82
2021/04/22 04:43:06;;;;;;;1.83;0.33;;;;;;;4.40;66.53;100983.78;4995217;28;20178;-83
2021/04/22 04:45:31;;;;;;;3.27;2.07;;;;;;;4.40;67.10;100994.59;4995172;28;20173;-84
2021/04/22 04:47:57;;;;;;;1.83;0.67;;;;;;;4.43;67.34;101010.31;4995438;28;20185;-83
2021/04/22 04:50:22;;;;;;;0.20;0.20;;;;;;;4.43;66.22;100996.78;4993756;28;20548;-82
2021/04/22 04:52:48;;;;;;;0.37;0.37;;;;;;;4.43;66.76;101003.00;4995035;28;20541;-83
2021/04/22 04:55:14;;;;;;;0.83;0.47;;;;;;;4.41;66.08;101002.44;4994918;28;20173;-84
2021/04/22 04:57:40;;;;;;;4.17;2.00;;;;;;;4.43;66.17;100992.19;4995121;28;20181;-76
2021/04/22 05:00:07;;;;;;;6.43;1.67;;;;;;;4.45;65.91;100992.75;4994911;28;20179;-80
2021/04/22 05:02:33;;;;;;;6.03;0.47;;;;;;;4.47;66.36;100993.28;4993437;28;20260;-78
2021/04/22 05:04:59;;;;;;;2.90;0.57;;;;;;;4.52;66.32;101002.56;4995218;28;20200;-82
2021/04/22 05:07:24;;;;;;;6.23;0.93;;;;;;;4.54;66.18;101017.44;4994932;28;20605;-81
2021/04/22 05:09:50;;;;;;;1.63;0.40;;;;;;;4.56;66.29;101018.00;4994536;28;20740;-80
2021/04/22 05:12:15;;;;;;;1.47;1.37;;;;;;;4.57;66.17;101022.34;4994640;28;20185;-82
2021/04/22 05:14:41;;;;;;;0.93;0.53;;;;;;;4.58;66.29;101025.88;4994607;28;20179;-83
2021/04/22 05:17:06;;;;;;;10.07;2.93;;;;;;;4.59;66.65;101022.91;4994743;28;20535;-81
2021/04/22 05:19:31;;;;;;;2.03;0.80;;;;;;;4.59;66.60;101028.31;4994595;28;20255;-79
2021/04/22 05:21:57;;;;;;;1.83;1.17;;;;;;;4.60;66.60;101024.53;4994254;28;20178;-81
2021/04/22 05:24:22;;;;;;;1.53;1.07;;;;;;;4.61;66.30;101036.16;4994620;28;20648;-80
2021/04/22 05:26:48;;;;;;;1.37;1.30;;;;;;;4.63;66.69;101036.72;4994400;28;20184;-80
2021/04/22 05:29:13;;;;;;;1.33;0.73;;;;;;;4.62;66.68;101035.91;4994617;28;20205;-78
2021/04/22 05:31:38;;;;;;;1.30;1.30;;;;;;;4.68;66.45;101034.91;4994459;28;20646;-84
2021/04/22 05:34:04;;;;;;;0.60;0.57;;;;;;;4.71;66.29;101036.25;4994318;28;20181;-76
2021/04/22 05:36:29;;;;;;;1.53;1.43;;;;;;;4.70;65.74;101040.88;4994279;28;20181;-82
2021/04/22 05:38:54;;;;;;;3.30;0.40;;;;;;;4.73;67.03;101043.03;4994310;28;20205;-83
2021/04/22 05:41:20;;;;;;;1.00;0.93;;;;;;;4.74;67.64;101047.38;4994138;28;20196;-84
2021/04/22 05:43:45;;;;;;;1.27;0.57;;;;;;;4.75;66.99;101037.38;4994101;28;20201;-84
2021/04/22 05:46:10;;;;;;;1.57;0.70;;;;;;;4.82;68.03;101038.00;4994166;28;20683;-82
2021/04/22 05:48:36;;;;;;;1.53;0.27;;;;;;;4.84;66.92;101038.53;4994183;28;20228;-80
2021/04/22 05:51:01;;;;;;;0.93;0.53;;;;;;;4.86;66.45;101052.63;4993912;28;20250;-81
2021/04/22 05:53:27;;;;;;;0.43;0.37;;;;;;;4.87;65.98;101043.44;4994017;28;20231;-80
2021/04/22 05:55:52;;;;;;;0.37;0.37;;;;;;;4.86;66.54;101046.41;4994097;28;20255;-82
2021/04/22 05:58:18;;;;;;;0.30;0.30;;;;;;;4.96;67.11;101043.78;4994013;28;20208;-84
2021/04/22 06:00:43;;;;;;;1.73;1.00;;;;;;;5.00;65.96;101047.59;4992939;28;20196;-83
2021/04/22 06:03:09;;;;;;;0.00;0.00;;;;;;;5.07;65.91;101053.63;4993680;28;20185;-81
2021/04/22 06:05:35;;;;;;;5.53;1.90;;;;;;;5.03;65.12;101053.31;4993668;28;20177;-79
2021/04/22 06:08:00;;;;;;;0.60;0.60;;;;;;;5.02;64.49;101048.16;4993801;28;20710;-83
2021/04/22 06:10:26;;;;;;;1.50;1.40;;;;;;;4.97;63.99;101040.81;4993584;28;20687;-83
2021/04/22 06:12:51;;;;;;;0.43;0.30;;;;;;;5.08;65.71;101055.25;4993590;28;20177;-82
2021/04/22 06:15:19;;;;;;;2.13;0.67;;;;;;;5.14;64.56;101061.50;4993380;28;20184;-81
2021/04/22 06:17:45;;;;;;;1.87;1.43;;;;;;;5.17;63.77;101067.22;4993468;28;20188;-83
2021/04/22 06:20:20;;;;;;;2.00;1.60;;;;;;;5.20;63.97;101057.75;4993517;28;20181;-79
2021/04/22 06:22:46;;;;;;;1.27;0.67;;;;;;;5.19;63.70;101066.94;4993373;28;20624;-80
2021/04/22 06:25:13;;;;;;;5.77;0.80;;;;;;;5.28;65.27;101066.22;4993388;28;20176;-80
2021/04/22 06:27:38;;;;;;;0.20;0.20;;;;;;;5.33;64.43;101068.13;4993427;28;20177;-80
2021/04/22 06:30:05;;;;;;;1.73;1.63;;;;;;;5.40;64.83;101062.50;4993350;28;20326;-82
2021/04/22 06:32:31;;;;;;;1.47;1.00;;;;;;;5.41;64.88;101056.81;4993307;28;20174;-83
2021/04/22 06:34:56;;;;;;;2.50;0.77;;;;;;;5.38;63.98;101070.91;4993345;28;20184;-80
2021/04/22 06:37:22;;;;;;;1.03;0.37;;;;;;;5.43;65.49;101054.66;4993289;28;20177;-78
2021/04/22 06:39:47;;;;;;;3.30;1.20;;;;;;;5.42;64.59;101060.34;4993026;28;20252;-81
2021/04/22 06:42:12;;;;;;;0.80;0.80;;;;;;;5.44;64.76;101069.03;4993050;28;20515;-80
2021/04/22 06:44:38;;;;;;;6.73;2.33;;;;;;;5.43;64.50;101072.81;4993357;28;20182;-76
2021/04/22 06:47:04;;;;;;;0.50;0.50;;;;;;;5.43;64.98;101073.63;4993103;28;20169;-78
2021/04/22 06:49:29;;;;;;;0.90;0.90;;;;;;;5.55;65.74;101081.56;4992884;28;20211;-76
2021/04/22 06:51:55;;;;;;;0.30;0.30;;;;;;;5.48;65.29;101076.34;4992779;28;20181;-81
2021/04/22 06:54:21;;;;;;;0.17;0.13;;;;;;;5.48;65.68;101076.34;4992989;28;20174;-74
2021/04/22 06:56:48;;;;;;;4.03;1.40;;;;;;;5.45;65.40;101081.50;4992302;28;20173;-76
2021/04/22 06:59:14;;;;;;;10.90;0.93;;;;;;;5.50;66.09;101087.78;4992807;28;20522;-73
2021/04/22 07:01:39;;;;;;;0.97;0.67;;;;;;;5.49;65.29;101085.31;4992787;28;20188;-72
2021/04/22 07:04:05;;;;;;;0.40;0.33;;;;;;;5.49;66.05;101090.72;4992747;28;20228;-74
2021/04/22 07:06:30;;;;;;;0.67;0.53;;;;;;;5.49;66.89;101088.81;4992846;28;20173;-75
2021/04/22 07:08:56;;;;;;;0.33;0.33;;;;;;;5.61;66.10;101094.06;4992660;28;20201;-80
2021/04/22 07:11:22;;;;;;;8.30;0.50;;;;;;;5.58;65.21;101086.44;4992805;28;20169;-80
2021/04/22 07:13:47;;;;;;;0.83;0.83;;;;;;;5.60;65.81;101093.25;4993581;28;20183;-79
2021/04/22 07:16:13;;;;;;;0.10;0.10;;;;;;;5.72;65.35;101079.50;4994154;28;20600;-81
2021/04/22 07:18:38;;;;;;;0.80;0.33;;;;;;;5.79;64.58;101092.81;4992843;28;20196;-81
2021/04/22 07:21:04;;;;;;;0.83;0.50;;;;;;;5.90;64.94;101083.66;4992273;28;20184;-82
2021/04/22 07:23:29;;;;;;;2.33;1.83;;;;;;;6.04;65.25;101090.22;4992507;28;20181;-79
2021/04/22 07:25:54;;;;;;;2.43;2.30;;;;;;;6.21;64.47;101085.41;4992559;28;20181;-82
2021/04/22 07:28:21;;;;;;;0.50;0.40;;;;;;;6.20;63.32;101088.38;4992190;28;20193;-82
2021/04/22 07:30:47;;;;;;;4.30;0.50;;;;;;;6.29;64.53;101088.69;4992293;28;20201;-81
2021/04/22 07:33:13;;;;;;;12.07;0.30;;;;;;;6.25;63.21;101094.66;4991964;28;20181;-83
2021/04/22 07:35:39;;;;;;;1.23;1.07;;;;;;;6.19;64.50;101092.19;4992038;28;20177;-84
2021/04/22 07:38:07;;;;;;;0.70;0.70;;;;;;;6.15;63.16;101091.09;4992052;28;20713;-74
2021/04/22 07:40:32;;;;;;;1.17;1.07;;;;;;;6.11;63.93;101092.72;4991781;28;20192;-80
2021/04/22 07:42:58;;;;;;;6.10;0.83;;;;;;;6.21;63.38;101098.16;4992140;28;20645;-79
2021/04/22 07:45:29;;;;;;;1.47;1.27;;;;;;;6.33;62.59;101097.94;4991850;28;20209;-80
2021/04/22 07:47:56;;;;;;;1.03;0.87;;;;;;;6.45;62.72;101109.38;4992201;28;20197;-78
2021/04/22 07:50:22;;;;;;;2.83;0.83;;;;;;;6.46;63.07;101106.38;4988695;28;20756;-73
2021/04/22 07:52:49;;;;;;;0.40;0.40;;;;;;;6.46;63.26;101119.97;5016657;28;20560;-76
2021/04/22 07:55:18;;;;;;;3.23;0.80;;;;;;;6.49;61.97;101116.69;4985874;28;20197;-78
2021/04/22 07:57:44;;;;;;;7.93;1.03;;;;;;;6.39;62.07;101115.88;5006554;28;20181;-76
2021/04/22 08:00:13;;;;;;;2.63;0.63;;;;;;;6.41;62.79;101119.94;4991497;28;20264;-77
2021/04/22 08:02:41;;;;;;;2.20;0.87;;;;;;;6.55;62.38;101125.69;4991218;28;20281;-75
2021/04/22 08:05:08;;;;;;;4.03;0.60;;;;;;;6.65;61.75;101133.84;4991343;28;20191;-78
2021/04/22 08:07:34;;;;;;;0.60;0.27;;;;;;;6.59;61.48;101124.06;4990324;28;20629;-78
2021/04/22 08:10:00;;;;;;;1.47;0.73;;;;;;;6.68;60.77;101124.38;4991120;28;20733;-78
2021/04/22 08:12:25;;;;;;;4.07;0.90;;;;;;;6.73;62.48;101127.09;4991119;28;20275;-76
2021/04/22 08:14:53;;;;;;;4.00;0.43;;;;;;;6.69;61.87;101134.16;4991335;28;20177;-77
2021/04/22 08:17:19;;;;;;;1.50;0.60;;;;;;;6.62;62.39;101139.81;4991289;28;20590;-77
2021/04/22 08:19:44;;;;;;;1.73;0.80;;;;;;;6.71;62.48;101143.66;4991116;28;20213;-77
2021/04/22 08:22:09;;;;;;;0.20;0.20;;;;;;;6.89;62.73;101145.03;4991370;28;20534;-77
2021/04/22 08:24:34;;;;;;;0.10;0.00;;;;;;;6.82;61.81;101139.06;4991330;28;20216;-77
2021/04/22 08:27:00;;;;;;;3.47;0.77;;;;;;;6.77;62.76;101139.03;4991210;28;20212;-78
2021/04/22 08:29:25;;;;;;;0.40;0.40;;;;;;;6.78;61.96;101138.75;4990976;28;20688;-78
2021/04/22 08:31:51;;;;;;;1.00;1.00;;;;;;;6.76;61.45;101143.66;4990923;28;20627;-78
2021/04/22 08:34:16;;;;;;;0.80;0.77;;;;;;;6.89;61.13;101142.31;4989572;28;20177;-78
2021/04/22 08:36:41;;;;;;;0.10;0.10;;;;;;;6.88;60.84;101134.44;4991067;28;20180;-78
2021/04/22 08:39:09;;;;;;;5.80;0.50;;;;;;;6.98;61.00;101148.03;4991043;28;20173;-78
2021/04/22 08:41:36;;;;;;;1.97;1.60;;;;;;;7.11;60.47;101151.03;4991664;28;20235;-78
2021/04/22 08:44:02;;;;;;;0.40;0.40;;;;;;;7.21;60.56;101149.41;4990371;28;20177;-76
2021/04/22 08:46:30;;;;;;;1.47;0.83;;;;;;;7.12;60.35;101152.69;4990974;28;20169;-78
2021/04/22 08:48:55;;;;;;;3.77;2.77;;;;;;;7.01;59.23;101156.47;4990880;28;20177;-78
2021/04/22 08:51:21;;;;;;;2.13;1.97;;;;;;;6.97;60.19;101154.56;4989815;28;20426;-78
2021/04/22 08:53:47;;;;;;;6.50;1.37;;;;;;;6.83;59.79;101154.28;4990833;28;20177;-76
2021/04/22 08:56:14;;;;;;;1.33;0.97;;;;;;;6.90;60.96;101152.09;4990710;28;20201;-78
2021/04/22 08:58:41;;;;;;;0.60;0.60;;;;;;;7.02;60.46;101149.13;4990786;28;20170;-77
2021/04/22 09:01:10;;;;;;;2.67;1.57;;;;;;;7.27;59.24;101157.31;4990904;28;20184;-78
2021/04/22 09:03:36;;;;;;;4.20;0.80;;;;;;;7.38;59.12;101152.69;4990639;28;20184;-78
2021/04/22 09:06:02;;;;;;;2.43;1.23;;;;;;;7.62;59.59;101144.75;4990796;28;20165;-78
2021/04/22 09:08:44;;;;;;;3.17;0.87;;;;;;;7.44;58.15;101151.59;4990586;28;20567;-78
2021/04/22 09:11:12;;;;;;;5.87;0.67;;;;;;;7.52;59.46;101159.16;4990797;28;20199;-78
2021/04/22 09:13:40;;;;;;;1.30;1.20;;;;;;;7.46;59.07;101155.66;5005532;28;20624;-78
2021/04/22 09:16:26;;;;;;;1.90;1.23;;;;;;;7.62;59.34;101156.44;4990632;28;20260;-78
2021/04/22 09:18:56;;;;;;;1.60;1.13;;;;;;;7.66;60.16;101159.44;4990978;28;20197;-78
2021/04/22 09:21:30;;;;;;;1.13;1.00;;;;;;;7.54;58.11;101162.47;4994343;28;20277;-78
2021/04/22 09:23:57;;;;;;;0.30;0.30;;;;;;;7.56;58.99;101160.28;4994085;28;20220;-77
2021/04/22 09:26:36;;;;;;;5.87;2.37;;;;;;;7.82;59.88;101157.53;4994293;28;20252;-77
2021/04/22 09:29:03;;;;;;;1.70;1.65;;;;;;;7.87;57.52;101162.94;4993973;28;20200;-77
2021/04/22 09:31:29;;;;;;;3.07;0.60;;;;;;;7.95;57.65;101146.03;4994101;28;20398;-79
2021/04/22 09:34:16;;;;;;;2.43;0.30;;;;;;;8.01;55.58;101151.22;4994090;28;20182;-78
2021/04/22 09:36:48;;;;;;;1.30;1.30;;;;;;;8.16;53.26;101153.06;4994015;28;20176;-78
2021/04/22 09:39:24;;;;;;;3.70;0.77;;;;;;;8.22;53.85;101143.78;4994046;28;20178;-78
2021/04/22 09:41:54;;;;;;;1.77;1.67;;;;;;;8.35;55.18;101156.81;4993833;28;20200;-79
2021/04/22 09:44:21;;;;;;;1.57;0.60;;;;;;;8.45;55.26;101155.97;4993858;28;20541;-79
2021/04/22 09:46:48;;;;;;;1.90;0.60;;;;;;;8.43;54.82;101157.34;4993768;28;20197;-79
2021/04/22 09:49:19;;;;;;;0.63;0.53;;;;;;;8.24;54.00;101157.91;4992616;28;20236;-78
2021/04/22 09:51:46;;;;;;;0.63;0.30;;;;;;;8.12;54.37;101160.16;4993779;28;20501;-79
2021/04/22 09:54:17;;;;;;;1.03;0.17;;;;;;;8.13;56.11;101164.50;4993803;28;20177;-78
2021/04/22 09:56:51;;;;;;;2.87;0.50;;;;;;;8.16;51.98;101161.22;4993914;28;20260;-79
2021/04/22 09:59:20;;;;;;;2.23;0.60;;;;;;;8.51;53.70;101159.47;4994194;28;20172;-79
2021/04/22 10:01:58;;;;;;;0.43;0.40;;;;;;;8.76;53.48;101153.91;4993769;28;20269;-79
2021/04/22 10:04:35;;;;;;;0.27;0.27;;;;;;;8.88;49.46;101159.81;4993787;28;20201;-79
2021/04/22 10:07:01;;;;;;;0.80;0.60;;;;;;;8.94;50.59;101166.03;4993775;28;20181;-75
2021/04/22 10:09:34;;;;;;;2.03;0.90;;;;;;;9.07;51.07;101159.94;4984294;28;20223;-77
2021/04/22 10:12:01;;;;;;;2.10;0.60;;;;;;;9.03;51.14;101163.53;4991690;28;20184;-77
2021/04/22 10:14:32;;;;;;;1.50;1.40;;;;;;;9.00;50.52;101155.94;4993254;28;20263;-77
2021/04/22 10:16:57;;;;;;;0.87;0.70;;;;;;;8.60;50.16;101165.97;4993330;28;20228;-76
2021/04/22 10:19:23;;;;;;;3.73;0.80;;;;;;;8.61;50.33;101156.72;4993315;28;20566;-76
2021/04/22 10:21:48;;;;;;;1.80;0.50;;;;;;;8.99;51.76;101154.31;4991919;28;20184;-79
2021/04/22 10:24:15;;;;;;;1.57;0.93;;;;;;;9.16;48.69;101146.53;4993239;28;20219;-77
2021/04/22 10:26:42;;;;;;;0.37;0.30;;;;;;;9.11;51.02;101165.66;5008549;28;20173;-78
2021/04/22 10:29:08;;;;;;;2.70;1.20;;;;;;;8.78;51.64;101154.41;4993123;28;20173;-78
2021/04/22 10:31:35;;;;;;;0.30;0.30;;;;;;;8.69;51.99;101169.75;4992266;28;20252;-77
2021/04/22 10:34:01;;;;;;;0.37;0.37;;;;;;;8.76;50.68;101172.16;4993074;28;20169;-77
2021/04/22 10:36:27;;;;;;;3.20;0.43;;;;;;;8.89;52.34;101157.91;4993014;28;20183;-76
2021/04/22 10:38:55;;;;;;;5.67;0.40;;;;;;;8.95;49.85;101156.75;4993132;28;20633;-78
2021/04/22 10:41:21;;;;;;;0.90;0.30;;;;;;;8.87;50.23;101154.66;4992852;28;20177;-78
2021/04/22 10:43:47;;;;;;;1.30;0.57;;;;;;;8.85;49.59;101163.13;4992902;28;20581;-77
2021/04/22 10:46:13;;;;;;;3.17;0.83;;;;;;;9.07;49.75;101170.84;4992876;28;20173;-78
2021/04/22 10:48:39;;;;;;;1.90;0.83;;;;;;;9.23;49.26;101166.91;4992855;28;20188;-76
2021/04/22 10:51:06;;;;;;;0.23;0.10;;;;;;;9.29;50.90;101167.72;4992678;28;20700;-76
2021/04/22 10:53:36;;;;;;;0.57;0.33;;;;;;;8.95;50.90;101176.66;4992398;28;20692;-78
2021/04/22 10:56:01;;;;;;;3.50;1.00;;;;;;;8.94;51.04;101161.41;5006496;28;20588;-76
2021/04/22 10:58:36;;;;;;;2.90;1.03;;;;;;;8.97;52.19;101172.81;4992330;28;20178;-76
2021/04/22 11:01:06;;;;;;;0.70;0.40;;;;;;;9.17;48.61;101180.88;4992473;28;20184;-78
2021/04/22 11:03:38;;;;;;;1.00;1.00;;;;;;;9.18;49.38;101168.88;4991857;28;20177;-77
2021/04/22 11:06:19;;;;;;;0.73;0.70;;;;;;;9.19;50.27;101165.06;4992206;28;20177;-77
2021/04/22 11:08:48;;;;;;;2.87;1.20;;;;;;;8.94;51.41;101166.84;4992524;28;20239;-77
2021/04/22 11:11:29;;;;;;;0.97;0.97;;;;;;;9.17;51.53;101156.34;4992049;28;20220;-78
2021/04/22 11:14:15;;;;;;;0.53;0.53;;;;;;;9.27;50.15;101163.66;5006858;28;20189;-77
2021/04/22 11:16:42;;;;;;;1.90;1.03;;;;;;;9.34;49.66;101162.22;4991993;28;20268;-77
2021/04/22 11:19:18;;;;;;;5.73;0.57;;;;;;;9.39;47.91;101170.34;4991938;28;20177;-76
2021/04/22 11:21:53;;;;;;;0.10;0.10;;;;;;;9.46;49.29;101170.84;4990231;28;20185;-78
2021/04/22 11:24:42;;;;;;;2.23;0.60;;;;;;;9.29;47.24;101164.16;4992425;28;20532;-76
2021/04/22 11:27:10;;;;;;;0.40;0.40;;;;;;;9.34;49.22;101167.66;4985546;28;20188;-79
2021/04/22 11:29:39;;;;;;;0.37;0.37;;;;;;;9.24;48.92;101175.91;4991944;28;20197;-78
2021/04/22 11:32:18;;;;;;;3.03;1.30;;;;;;;9.33;50.13;101167.94;4991558;28;20181;-78